Time;durP1;ratioP1;P1;durP2;ratioP2;P2;SDS_P1;SDS_P2;PMS_P1;PMS_P2;Temp;Humidity;BMP_temperature;BMP_pressure;BME280_temperature;BME280_humidity;BME280_pressure;Samples;Min_cycle;Max_cycle;Signal;HPM_P1;HPM_P2
2021/09/28 04:01:18;;;;;;;42.97;7.00;;;12.70;99.70;;;;;;5050434;28;20173;-69
2021/09/28 04:03:44;;;;;;;44.60;6.67;;;12.80;99.70;;;;;;5050372;28;20252;-69
2021/09/28 04:06:12;;;;;;;43.80;7.37;;;12.70;99.70;;;;;;5050130;28;20459;-69
2021/09/28 04:08:38;;;;;;;43.27;6.90;;;12.70;99.70;;;;;;5049775;28;20699;-69
2021/09/28 04:11:05;;;;;;;42.70;8.23;;;12.70;99.70;;;;;;5050179;28;20440;-69
2021/09/28 04:13:32;;;;;;;42.60;7.60;;;12.70;99.70;;;;;;5050414;28;20447;-69
2021/09/28 04:16:00;;;;;;;45.50;8.97;;;12.60;99.70;;;;;;5049497;28;20483;-69
2021/09/28 04:18:27;;;;;;;44.60;9.00;;;12.60;99.70;;;;;;5049506;28;20451;-68
2021/09/28 04:20:55;;;;;;;45.37;8.00;;;12.50;99.70;;;;;;5049907;28;20454;-69
2021/09/28 04:23:22;;;;;;;44.07;9.60;;;12.40;99.70;;;;;;5049857;28;20456;-69
2021/09/28 04:25:49;;;;;;;44.30;9.20;;;12.30;99.70;;;;;;5050150;28;20760;-69
2021/09/28 04:28:16;;;;;;;48.70;9.13;;;12.30;99.70;;;;;;5049935;28;20497;-69
2021/09/28 04:30:43;;;;;;;45.57;8.93;;;12.20;99.70;;;;;;5049510;28;20470;-69
2021/09/28 04:33:10;;;;;;;45.67;8.97;;;12.20;99.70;;;;;;5049792;28;20444;-69
2021/09/28 04:35:38;;;;;;;44.33;7.83;;;12.20;99.70;;;;;;5049365;28;20517;-69
2021/09/28 04:38:05;;;;;;;43.20;8.67;;;12.20;99.70;;;;;;5046196;28;20455;-69
2021/09/28 04:40:32;;;;;;;44.17;8.10;;;12.20;99.70;;;;;;5038414;28;20452;-68
2021/09/28 04:42:58;;;;;;;44.30;7.63;;;12.20;99.70;;;;;;5039872;28;20452;-68
2021/09/28 04:45:28;;;;;;;42.70;7.83;;;12.20;99.70;;;;;;5038947;28;20460;-69
2021/09/28 04:47:55;;;;;;;44.40;8.23;;;12.20;99.70;;;;;;5049080;28;20451;-68
2021/09/28 04:50:21;;;;;;;43.50;7.70;;;12.10;99.70;;;;;;5045665;28;20443;-68
2021/09/28 04:52:50;;;;;;;45.27;7.73;;;12.10;99.70;;;;;;5048681;28;20443;-68
2021/09/28 04:55:16;;;;;;;43.43;8.00;;;12.00;99.70;;;;;;5049148;28;20479;-68
2021/09/28 04:57:43;;;;;;;46.77;7.90;;;12.00;99.70;;;;;;5048751;28;20487;-69
2021/09/28 05:00:11;;;;;;;45.57;7.77;;;12.00;99.70;;;;;;5048638;28;20447;-68
2021/09/28 05:02:37;;;;;;;45.30;7.70;;;12.00;99.70;;;;;;5048597;28;20879;-68
2021/09/28 05:05:05;;;;;;;44.50;7.23;;;12.00;99.70;;;;;;5048602;28;20529;-68
2021/09/28 05:07:32;;;;;;;46.70;8.73;;;12.00;99.70;;;;;;5048660;28;20463;-68
2021/09/28 05:10:00;;;;;;;47.33;8.00;;;12.10;99.70;;;;;;5040764;28;20443;-70
2021/09/28 05:12:28;;;;;;;44.40;7.30;;;12.20;99.70;;;;;;5038258;28;20447;-71
2021/09/28 05:14:56;;;;;;;44.57;7.77;;;12.20;99.70;;;;;;5033627;28;20784;-69
2021/09/28 05:17:23;;;;;;;47.10;7.80;;;12.30;99.70;;;;;;5030656;28;20848;-68
2021/09/28 05:19:50;;;;;;;43.63;7.03;;;12.30;99.70;;;;;;5032196;28;20466;-68
2021/09/28 05:22:16;;;;;;;47.20;7.90;;;12.40;99.70;;;;;;5028906;28;21122;-68
2021/09/28 05:24:43;;;;;;;44.73;7.83;;;12.50;99.70;;;;;;5028082;28;20463;-68
2021/09/28 05:27:11;;;;;;;46.00;8.50;;;12.50;99.70;;;;;;5032305;28;20452;-68
2021/09/28 05:29:38;;;;;;;45.20;7.30;;;12.50;99.70;;;;;;5033160;28;20445;-68
2021/09/28 05:32:05;;;;;;;49.47;8.47;;;12.60;99.70;;;;;;5048691;28;20443;-68
2021/09/28 05:34:32;;;;;;;43.70;8.30;;;12.40;99.70;;;;;;5043339;28;20448;-69
2021/09/28 05:36:59;;;;;;;45.73;8.53;;;12.40;99.70;;;;;;5039812;28;20482;-68
2021/09/28 05:39:26;;;;;;;46.60;9.23;;;12.30;99.70;;;;;;5048031;28;20455;-68
2021/09/28 05:41:53;;;;;;;45.50;9.50;;;12.20;99.70;;;;;;5045047;28;20445;-68
2021/09/28 05:44:21;;;;;;;46.33;9.50;;;12.30;99.70;;;;;;5046642;28;20448;-69
2021/09/28 05:46:47;;;;;;;46.60;9.70;;;12.20;99.70;;;;;;5033352;28;20461;-68
2021/09/28 05:49:14;;;;;;;47.10;9.47;;;12.20;99.70;;;;;;5025970;28;20811;-68
2021/09/28 05:51:50;;;;;;;46.77;9.40;;;12.30;99.70;;;;;;5028352;28;20448;-69
2021/09/28 05:54:18;;;;;;;50.47;11.33;;;12.30;99.70;;;;;;5028532;28;20444;-68
2021/09/28 05:56:45;;;;;;;49.27;11.00;;;12.20;99.70;;;;;;5028384;28;20489;-68
2021/09/28 05:59:11;;;;;;;46.47;10.57;;;12.20;99.70;;;;;;5028084;28;20449;-68
2021/09/28 06:01:39;;;;;;;49.10;11.37;;;12.30;99.70;;;;;;5028430;28;20447;-69
2021/09/28 06:04:06;;;;;;;47.47;10.30;;;12.30;99.70;;;;;;5028273;28;20452;-68
2021/09/28 06:06:33;;;;;;;48.00;10.23;;;12.40;99.70;;;;;;5028758;28;20519;-68
2021/09/28 06:09:00;;;;;;;51.03;10.23;;;12.50;99.70;;;;;;5027844;28;20452;-69
2021/09/28 06:11:26;;;;;;;47.10;11.00;;;12.50;99.70;;;;;;5028438;28;20444;-68
2021/09/28 06:13:54;;;;;;;49.00;10.83;;;12.50;99.70;;;;;;5028180;28;20444;-68
2021/09/28 06:16:20;;;;;;;50.90;12.23;;;12.50;99.70;;;;;;5024732;28;20476;-68
2021/09/28 06:18:48;;;;;;;48.57;11.57;;;12.60;99.70;;;;;;5027238;28;20451;-69
2021/09/28 06:21:15;;;;;;;51.47;13.27;;;12.60;99.70;;;;;;5028325;28;20444;-69
2021/09/28 06:23:42;;;;;;;52.30;13.43;;;12.60;99.70;;;;;;5028051;28;20451;-69
2021/09/28 06:26:09;;;;;;;51.80;14.63;;;12.70;99.70;;;;;;5028334;28;20539;-69
2021/09/28 06:28:36;;;;;;;52.33;12.57;;;12.80;99.70;;;;;;5027202;28;20502;-68
2021/09/28 06:31:03;;;;;;;55.53;13.90;;;13.00;99.70;;;;;;5029136;28;20452;-69
2021/09/28 06:33:30;;;;;;;57.83;12.43;;;13.00;99.70;;;;;;5031970;28;20444;-69
2021/09/28 06:35:58;;;;;;;51.60;11.93;;;12.90;99.70;;;;;;5031088;28;20771;-69
2021/09/28 06:38:25;;;;;;;54.73;13.77;;;12.90;99.70;;;;;;5030930;28;20492;-68
2021/09/28 06:40:52;;;;;;;50.93;13.80;;;12.90;99.70;;;;;;5031996;28;20943;-69
2021/09/28 06:43:19;;;;;;;50.00;13.97;;;13.00;99.70;;;;;;5031798;28;20452;-69
2021/09/28 06:45:46;;;;;;;50.43;14.10;;;13.10;99.70;;;;;;5031509;28;20467;-69
2021/09/28 06:48:13;;;;;;;54.60;16.87;;;13.40;99.70;;;;;;5031691;28;20932;-69
2021/09/28 06:50:40;;;;;;;51.07;15.63;;;13.40;99.70;;;;;;5028951;28;20472;-69
2021/09/28 06:53:07;;;;;;;50.77;15.47;;;13.60;99.70;;;;;;5032297;28;20486;-69
2021/09/28 06:55:35;;;;;;;50.83;16.20;;;13.60;99.70;;;;;;5031302;28;20464;-69
2021/09/28 06:58:02;;;;;;;49.80;16.07;;;13.70;99.70;;;;;;5031695;28;20488;-69
2021/09/28 07:00:30;;;;;;;53.60;19.03;;;13.70;99.70;;;;;;5030680;28;20440;-69
2021/09/28 07:02:57;;;;;;;53.63;18.23;;;13.70;99.70;;;;;;5031916;28;20445;-69
2021/09/28 07:05:24;;;;;;;52.67;17.00;;;13.70;99.70;;;;;;5031064;28;20491;-69
2021/09/28 07:07:50;;;;;;;50.90;18.13;;;13.80;99.70;;;;;;5031808;28;20440;-69
2021/09/28 07:10:18;;;;;;;59.07;17.90;;;13.70;99.70;;;;;;5030634;28;20444;-69
2021/09/28 07:12:45;;;;;;;54.03;17.20;;;13.70;99.70;;;;;;5031155;28;20471;-69
2021/09/28 07:15:12;;;;;;;51.90;17.40;;;13.80;99.70;;;;;;5030831;28;20472;-69
2021/09/28 07:17:39;;;;;;;55.33;22.20;;;14.00;99.70;;;;;;5031200;28;20480;-69
2021/09/28 07:20:07;;;;;;;56.30;23.10;;;14.20;99.70;;;;;;5030302;28;20444;-69
2021/09/28 07:22:34;;;;;;;54.00;23.30;;;14.20;99.70;;;;;;5030741;28;20448;-69
2021/09/28 07:25:00;;;;;;;54.50;23.63;;;14.20;99.70;;;;;;5030919;28;20471;-69
2021/09/28 07:27:28;;;;;;;55.93;24.20;;;14.20;99.70;;;;;;5030994;28;20436;-69
2021/09/28 07:29:56;;;;;;;54.33;25.23;;;14.20;99.70;;;;;;5030479;28;20437;-69
2021/09/28 07:32:23;;;;;;;56.53;26.70;;;14.10;99.70;;;;;;5030610;28;20540;-69
2021/09/28 07:34:49;;;;;;;57.03;25.80;;;14.20;99.70;;;;;;5030760;28;20481;-69
2021/09/28 07:37:16;;;;;;;53.30;23.97;;;14.20;99.70;;;;;;5030885;28;20476;-68
2021/09/28 07:39:43;;;;;;;60.40;28.40;;;14.30;99.70;;;;;;5030265;28;20825;-69
2021/09/28 07:42:10;;;;;;;57.93;25.13;;;14.40;99.70;;;;;;5030103;28;20453;-68
2021/09/28 07:44:38;;;;;;;57.60;24.37;;;14.70;99.70;;;;;;5030615;28;20444;-69
2021/09/28 07:47:05;;;;;;;55.20;23.93;;;14.90;99.70;;;;;;5036764;28;20467;-69
2021/09/28 07:49:32;;;;;;;51.37;19.63;;;15.20;99.70;;;;;;5047832;28;20531;-68
2021/09/28 07:51:58;;;;;;;54.10;17.37;;;15.30;99.70;;;;;;5050337;28;20494;-69
2021/09/28 07:54:25;;;;;;;52.07;15.70;;;15.40;99.70;;;;;;5050647;28;20447;-69
2021/09/28 07:56:52;;;;;;;53.40;16.93;;;15.10;99.70;;;;;;5050540;28;20485;-68
2021/09/28 07:59:18;;;;;;;56.13;19.87;;;14.80;99.70;;;;;;5049694;28;20662;-69
2021/09/28 08:01:46;;;;;;;54.03;21.63;;;14.70;99.70;;;;;;5050112;28;20435;-68
2021/09/28 08:04:19;;;;;;;54.50;18.77;;;14.70;99.70;;;;;;5049799;28;20442;-68
2021/09/28 08:06:45;;;;;;;55.33;17.90;;;14.80;99.70;;;;;;5049664;28;21053;-69
2021/09/28 08:09:12;;;;;;;53.30;16.23;;;15.00;99.70;;;;;;5049535;28;20444;-69
2021/09/28 08:11:39;;;;;;;55.23;18.40;;;15.00;99.70;;;;;;5049871;28;20455;-69
2021/09/28 08:14:06;;;;;;;54.37;15.50;;;15.00;99.70;;;;;;5049579;28;20911;-69
2021/09/28 08:16:34;;;;;;;54.90;19.90;;;14.80;99.70;;;;;;5049920;28;20912;-69
2021/09/28 08:19:02;;;;;;;54.43;18.10;;;14.80;99.70;;;;;;5049409;28;20486;-69
2021/09/28 08:21:28;;;;;;;55.57;18.80;;;14.70;99.70;;;;;;5049882;28;20455;-69
2021/09/28 08:23:55;;;;;;;51.90;15.20;;;14.90;99.70;;;;;;5049527;28;20448;-69
2021/09/28 08:29:09;;;;;;;58.63;21.50;;;15.30;99.70;;;;;;5048957;28;20929;-69
2021/09/28 08:31:38;;;;;;;53.40;18.03;;;15.70;99.70;;;;;;5049940;28;20444;-68
2021/09/28 08:34:06;;;;;;;51.23;14.40;;;15.90;99.70;;;;;;5049345;28;20452;-69
2021/09/28 08:36:34;;;;;;;50.13;13.37;;;16.00;99.70;;;;;;5049499;28;20471;-68
2021/09/28 08:39:02;;;;;;;52.83;12.40;;;16.10;99.70;;;;;;5048874;28;20476;-69
2021/09/28 08:41:28;;;;;;;51.20;12.53;;;16.20;99.70;;;;;;5049427;28;20450;-69
2021/09/28 08:43:55;;;;;;;48.60;10.73;;;16.30;99.70;;;;;;5049449;28;20966;-69
2021/09/28 08:46:22;;;;;;;50.27;9.90;;;16.50;99.70;;;;;;5048847;28;20472;-69
2021/09/28 08:48:49;;;;;;;48.70;10.37;;;16.60;99.70;;;;;;5046732;28;20440;-69
2021/09/28 08:51:17;;;;;;;48.20;8.53;;;16.80;99.70;;;;;;5048860;28;20444;-69
2021/09/28 08:53:44;;;;;;;46.57;9.33;;;16.90;99.70;;;;;;5048367;28;20935;-68
2021/09/28 08:56:12;;;;;;;48.43;8.93;;;16.90;99.70;;;;;;5048636;28;20471;-68
2021/09/28 08:58:53;;;;;;;43.97;8.53;;;17.00;99.70;;;;;;5048720;28;20479;-69
2021/09/28 09:01:20;;;;;;;46.57;9.30;;;16.80;99.70;;;;;;5049209;28;20439;-69
2021/09/28 09:03:46;;;;;;;49.30;9.33;;;16.60;99.70;;;;;;5048929;28;20455;-69
2021/09/28 09:06:14;;;;;;;45.30;9.53;;;16.50;99.70;;;;;;5048218;28;20470;-69
2021/09/28 09:08:42;;;;;;;48.97;9.70;;;16.40;99.70;;;;;;5048171;28;20443;-69
2021/09/28 09:11:11;;;;;;;47.13;10.00;;;16.50;99.70;;;;;;5048357;28;20443;-69
2021/09/28 09:13:41;;;;;;;45.70;10.47;;;16.60;99.70;;;;;;5048978;28;20958;-68
2021/09/28 09:16:10;;;;;;;50.53;10.83;;;16.70;99.70;;;;;;5049157;28;20483;-68
2021/09/28 09:18:38;;;;;;;48.33;9.97;;;16.50;99.70;;;;;;5047895;28;20475;-68
2021/09/28 09:21:06;;;;;;;48.20;10.80;;;16.60;99.70;;;;;;5048510;28;20493;-69
2021/09/28 09:23:35;;;;;;;48.03;10.30;;;16.70;99.70;;;;;;5048407;28;20448;-68
2021/09/28 09:26:06;;;;;;;48.80;11.20;;;16.50;99.70;;;;;;5048434;28;20937;-68
2021/09/28 09:28:35;;;;;;;46.13;10.13;;;16.10;99.70;;;;;;5047923;28;20807;-68
2021/09/28 09:31:21;;;;;;;47.37;11.53;;;15.90;99.70;;;;;;5048351;28;20448;-69
2021/09/28 09:33:49;;;;;;;52.40;12.83;;;16.10;99.70;;;;;;5048506;28;20456;-69
2021/09/28 09:36:18;;;;;;;50.53;12.53;;;15.80;99.70;;;;;;5048681;28;20464;-69
2021/09/28 09:38:47;;;;;;;48.70;12.30;;;15.90;99.70;;;;;;5047804;28;20567;-68
2021/09/28 09:41:16;;;;;;;46.77;9.97;;;16.50;99.70;;;;;;5048586;28;20443;-68
2021/09/28 09:43:48;;;;;;;47.87;10.03;;;17.20;99.70;;;;;;5048290;28;20834;-68
2021/09/28 09:46:17;;;;;;;45.30;11.40;;;17.50;99.70;;;;;;5046457;28;20470;-69
2021/09/28 09:48:44;;;;;;;45.57;11.03;;;17.90;99.70;;;;;;5025738;28;20944;-68
2021/09/28 09:51:13;;;;;;;44.00;11.10;;;18.00;99.70;;;;;;5028563;28;20447;-68
2021/09/28 09:53:58;;;;;;;49.23;11.40;;;18.20;99.70;;;;;;5028279;28;20449;-68
2021/09/28 09:56:42;;;;;;;46.90;11.60;;;18.00;99.70;;;;;;5028437;28;20465;-68
2021/09/28 09:59:09;;;;;;;44.90;12.23;;;17.70;99.70;;;;;;5027819;28;20487;-68
2021/09/28 10:01:36;;;;;;;43.77;9.60;;;17.60;99.70;;;;;;5028547;28;20444;-68
2021/09/28 10:04:03;;;;;;;45.40;9.80;;;17.60;99.70;;;;;;5028115;28;20473;-68
2021/09/28 10:06:29;;;;;;;48.10;12.47;;;17.20;99.70;;;;;;5031864;28;20838;-69
2021/09/28 10:08:57;;;;;;;46.57;11.87;;;16.90;99.70;;;;;;5031725;28;20451;-68
2021/09/28 10:11:27;;;;;;;50.50;10.37;;;16.70;99.70;;;;;;5032671;28;20451;-68
2021/09/28 10:13:56;;;;;;;46.77;9.60;;;16.60;99.70;;;;;;5032695;28;20476;-68
2021/09/28 10:16:38;;;;;;;48.10;10.17;;;16.40;99.70;;;;;;5032147;28;21016;-69
2021/09/28 10:19:25;;;;;;;46.53;9.80;;;16.30;99.70;;;;;;5031853;28;21161;-69
2021/09/28 10:21:52;;;;;;;44.63;9.50;;;16.20;99.70;;;;;;5032451;28;20862;-68
2021/09/28 10:24:29;;;;;;;46.50;10.23;;;16.10;99.70;;;;;;5032387;28;20444;-68
2021/09/28 10:27:31;;;;;;;51.00;9.07;;;16.10;99.70;;;;;;5032177;28;20448;-68
2021/09/28 10:29:58;;;;;;;44.80;8.20;;;16.10;99.70;;;;;;5035865;28;21504;-68
2021/09/28 10:32:47;;;;;;;42.80;6.70;;;16.20;99.70;;;;;;5052052;28;20493;-68
2021/09/28 10:35:17;;;;;;;46.10;7.83;;;16.40;99.70;;;;;;5051653;28;20848;-69
2021/09/28 10:37:55;;;;;;;48.50;9.00;;;16.70;99.70;;;;;;5052224;28;20554;-68
2021/09/28 10:40:50;;;;;;;45.13;8.10;;;16.90;99.70;;;;;;5049543;28;20443;-68
2021/09/28 10:43:30;;;;;;;43.30;7.57;;;17.10;99.70;;;;;;5052148;28;20824;-68
2021/09/28 10:46:00;;;;;;;47.00;8.83;;;17.10;99.70;;;;;;5051296;28;20467;-68
2021/09/28 10:48:36;;;;;;;44.70;7.83;;;17.20;99.70;;;;;;5050825;28;20462;-69
2021/09/28 10:51:13;;;;;;;43.97;7.70;;;17.10;99.70;;;;;;5050711;28;20474;-68
2021/09/28 10:53:42;;;;;;;43.30;6.90;;;16.90;99.70;;;;;;5050979;28;20439;-69
2021/09/28 10:56:10;;;;;;;43.27;7.30;;;16.90;99.70;;;;;;5051158;28;20464;-69
2021/09/28 10:58:55;;;;;;;44.80;7.33;;;16.70;99.70;;;;;;5050614;28;20497;-69
2021/09/28 11:01:24;;;;;;;46.10;7.00;;;16.50;99.70;;;;;;5051154;28;20431;-68
2021/09/28 11:03:58;;;;;;;46.30;8.53;;;16.40;99.70;;;;;;5050997;28;20447;-68
2021/09/28 11:06:46;;;;;;;43.03;8.97;;;16.30;99.70;;;;;;5051467;28;20471;-68
2021/09/28 11:09:13;;;;;;;45.37;8.67;;;16.40;99.70;;;;;;5050650;28;20447;-68
2021/09/28 11:11:40;;;;;;;46.37;7.10;;;16.30;99.70;;;;;;5051221;28;20824;-68
2021/09/28 11:14:10;;;;;;;42.67;6.60;;;16.50;99.70;;;;;;5050414;28;20454;-68
2021/09/28 11:16:41;;;;;;;42.63;7.20;;;16.40;99.70;;;;;;5050104;28;20482;-68
2021/09/28 11:19:09;;;;;;;44.17;7.97;;;16.40;99.70;;;;;;5048433;28;20487;-68
2021/09/28 11:21:37;;;;;;;42.73;7.90;;;16.60;99.70;;;;;;5048935;28;20585;-68
2021/09/28 11:24:04;;;;;;;45.33;7.10;;;16.60;99.70;;;;;;5049583;28;20471;-68
2021/09/28 11:26:32;;;;;;;46.20;7.60;;;16.60;99.70;;;;;;5035011;28;20555;-68
2021/09/28 11:29:02;;;;;;;44.63;8.90;;;16.70;99.70;;;;;;5035376;28;20480;-68
2021/09/28 11:31:34;;;;;;;43.73;6.63;;;16.60;99.70;;;;;;5030724;28;20449;-68
2021/09/28 11:34:01;;;;;;;41.03;5.80;;;16.70;99.70;;;;;;5046161;28;20452;-68
2021/09/28 11:36:33;;;;;;;43.40;6.80;;;16.70;99.70;;;;;;5050375;28;20460;-68
2021/09/28 11:39:00;;;;;;;45.93;6.40;;;16.70;99.70;;;;;;5046252;28;20554;-68
2021/09/28 11:41:27;;;;;;;45.13;6.43;;;16.60;99.70;;;;;;5050787;28;20439;-68
2021/09/28 11:43:56;;;;;;;43.17;6.63;;;16.70;99.70;;;;;;5049744;28;20475;-68
2021/09/28 11:46:25;;;;;;;42.70;6.03;;;16.80;99.70;;;;;;5029346;28;21006;-68
2021/09/28 11:48:58;;;;;;;43.73;7.10;;;17.00;99.70;;;;;;5027925;28;20432;-69
2021/09/28 11:51:27;;;;;;;43.47;7.70;;;17.10;99.70;;;;;;5030097;28;20952;-68
2021/09/28 11:53:55;;;;;;;44.90;6.80;;;17.20;99.70;;;;;;5030087;28;20460;-68
2021/09/28 11:56:25;;;;;;;42.73;8.07;;;17.40;99.70;;;;;;5030099;28;20473;-68
2021/09/28 11:58:53;;;;;;;43.90;6.90;;;17.30;99.70;;;;;;5029539;28;20483;-68
2021/09/28 12:01:21;;;;;;;44.07;6.63;;;17.20;99.70;;;;;;5029690;28;20940;-68
2021/09/28 12:04:13;;;;;;;43.47;6.50;;;17.20;99.70;;;;;;5029891;28;20451;-68
2021/09/28 12:07:02;;;;;;;44.47;7.20;;;17.20;99.70;;;;;;5029785;28;21032;-68
2021/09/28 12:09:53;;;;;;;41.63;6.27;;;17.30;99.70;;;;;;5029409;28;20812;-68
2021/09/28 12:12:22;;;;;;;41.30;6.17;;;17.20;99.70;;;;;;5029761;28;20445;-69
2021/09/28 12:14:50;;;;;;;42.97;6.30;;;17.20;99.70;;;;;;5029623;28;20495;-68
2021/09/28 12:17:18;;;;;;;43.00;7.40;;;17.30;99.70;;;;;;5029763;28;20904;-68
2021/09/28 12:19:48;;;;;;;44.27;6.70;;;17.40;99.70;;;;;;5029180;28;20480;-68
2021/09/28 12:22:27;;;;;;;41.60;5.73;;;17.50;99.70;;;;;;5029782;28;20447;-68
2021/09/28 12:24:55;;;;;;;44.17;6.60;;;17.50;99.70;;;;;;5029538;28;20467;-68
2021/09/28 12:27:22;;;;;;;43.40;6.07;;;17.40;99.70;;;;;;5029326;28;20436;-68
2021/09/28 12:29:50;;;;;;;44.63;6.40;;;17.40;99.70;;;;;;5027761;28;20448;-68
2021/09/28 12:32:22;;;;;;;42.30;6.17;;;17.40;99.70;;;;;;5029473;28;20472;-68
2021/09/28 12:34:55;;;;;;;47.33;6.00;;;17.40;99.70;;;;;;5029094;28;20555;-68
2021/09/28 12:37:23;;;;;;;42.07;6.27;;;17.50;99.70;;;;;;5029471;28;20471;-68
2021/09/28 12:40:06;;;;;;;42.00;6.60;;;17.40;99.70;;;;;;5029012;28;20531;-68
2021/09/28 12:42:34;;;;;;;42.07;5.90;;;17.50;99.70;;;;;;5029522;28;20942;-68
2021/09/28 12:45:04;;;;;;;43.67;6.50;;;17.40;99.70;;;;;;5029065;28;20476;-68
2021/09/28 12:47:36;;;;;;;42.37;6.20;;;17.50;99.70;;;;;;5029069;28;20444;-68
2021/09/28 12:50:23;;;;;;;42.60;6.57;;;17.60;99.70;;;;;;5026574;28;20455;-68
2021/09/28 12:52:52;;;;;;;46.30;6.73;;;17.50;99.70;;;;;;5029119;28;20841;-68
2021/09/28 12:55:19;;;;;;;44.23;7.30;;;17.40;99.70;;;;;;5029424;28;20845;-68
2021/09/28 12:57:47;;;;;;;45.37;7.00;;;17.40;99.70;;;;;;5029144;28;20543;-68
2021/09/28 13:00:15;;;;;;;44.10;7.20;;;17.50;99.70;;;;;;5028345;28;20991;-68
2021/09/28 13:02:42;;;;;;;42.97;7.17;;;17.50;99.70;;;;;;5029198;28;20449;-69
2021/09/28 13:05:11;;;;;;;44.40;6.97;;;17.40;99.70;;;;;;5028468;28;20460;-68
2021/09/28 13:07:40;;;;;;;43.37;6.70;;;17.40;99.70;;;;;;5029346;28;20466;-68
2021/09/28 13:10:08;;;;;;;43.30;7.87;;;17.40;99.70;;;;;;5028212;28;20440;-68
2021/09/28 13:12:35;;;;;;;42.80;7.10;;;17.40;99.70;;;;;;5029322;28;20453;-68
2021/09/28 13:15:02;;;;;;;45.00;6.30;;;17.40;99.70;;;;;;5028056;28;20476;-68
2021/09/28 13:17:29;;;;;;;46.57;7.60;;;17.40;99.70;;;;;;5029052;28;20444;-68
2021/09/28 13:19:55;;;;;;;43.60;6.80;;;17.40;99.70;;;;;;5027710;28;20563;-68
2021/09/28 13:22:22;;;;;;;43.97;6.73;;;17.40;99.70;;;;;;5028862;28;20441;-68
2021/09/28 13:24:50;;;;;;;43.50;5.80;;;17.40;99.70;;;;;;5027978;28;20468;-68
2021/09/28 13:27:17;;;;;;;44.80;6.57;;;17.50;99.70;;;;;;5028833;28;20449;-68
2021/09/28 13:29:44;;;;;;;43.90;7.00;;;17.40;99.70;;;;;;5027771;28;20506;-68
2021/09/28 13:32:11;;;;;;;43.70;6.77;;;17.40;99.70;;;;;;5029235;28;20821;-68
2021/09/28 13:34:38;;;;;;;43.37;6.60;;;17.40;99.70;;;;;;5028294;28;20441;-68
2021/09/28 13:37:04;;;;;;;46.00;6.83;;;17.40;99.70;;;;;;5028640;28;20452;-68
2021/09/28 13:39:31;;;;;;;44.17;7.80;;;17.30;99.70;;;;;;5027435;28;20526;-68
2021/09/28 13:41:59;;;;;;;44.70;7.10;;;17.40;99.70;;;;;;5028088;28;20893;-68
2021/09/28 13:44:26;;;;;;;43.30;6.70;;;17.40;99.70;;;;;;5030752;28;20455;-69
2021/09/28 13:46:53;;;;;;;45.67;7.00;;;17.40;99.70;;;;;;5048062;28;20448;-68
2021/09/28 13:49:20;;;;;;;45.20;7.00;;;17.30;99.70;;;;;;5045730;28;20830;-68
2021/09/28 13:51:47;;;;;;;44.50;7.07;;;17.50;99.70;;;;;;5047939;28;20455;-68
2021/09/28 13:54:14;;;;;;;44.43;8.00;;;17.50;99.70;;;;;;5047825;28;20455;-68
2021/09/28 13:56:40;;;;;;;44.83;6.97;;;17.50;99.70;;;;;;5047946;28;20498;-68
2021/09/28 13:59:08;;;;;;;44.20;7.20;;;17.40;99.70;;;;;;5047532;28;20471;-68
2021/09/28 14:01:35;;;;;;;45.47;8.10;;;17.40;99.70;;;;;;5047885;28;20938;-68
2021/09/28 14:04:02;;;;;;;47.60;8.00;;;17.30;99.70;;;;;;5048136;28;20470;-68
2021/09/28 14:06:28;;;;;;;43.93;6.77;;;17.40;99.70;;;;;;5047650;28;20460;-68
2021/09/28 14:08:55;;;;;;;42.90;6.47;;;17.40;99.70;;;;;;5047615;28;20444;-68
2021/09/28 14:11:22;;;;;;;44.50;8.00;;;17.40;99.70;;;;;;5047878;28;20943;-68
2021/09/28 14:13:49;;;;;;;42.70;6.40;;;17.30;99.70;;;;;;5047664;28;20451;-68
2021/09/28 14:16:16;;;;;;;42.50;6.10;;;17.30;99.70;;;;;;5047894;28;20483;-68
2021/09/28 14:18:43;;;;;;;45.10;6.70;;;17.40;99.70;;;;;;5047129;28;20470;-69
2021/09/28 14:21:10;;;;;;;44.17;6.80;;;17.30;99.70;;;;;;5047971;28;20452;-68
2021/09/28 14:23:38;;;;;;;34.63;8.20;;;17.30;99.70;;;;;;5047627;28;20940;-69
2021/09/28 14:26:05;;;;;;;44.50;6.57;;;17.30;99.70;;;;;;5047727;28;20904;-68
2021/09/28 14:28:32;;;;;;;43.77;6.80;;;17.30;99.70;;;;;;5047161;28;20470;-68
2021/09/28 14:30:59;;;;;;;44.30;6.40;;;17.30;99.70;;;;;;5047813;28;20778;-68
2021/09/28 14:33:27;;;;;;;35.47;8.40;;;17.30;99.70;;;;;;5047958;28;20451;-68
2021/09/28 14:35:54;;;;;;;40.90;6.90;;;17.30;99.70;;;;;;5046331;28;20221;-68
2021/09/28 14:38:21;;;;;;;44.50;6.70;;;17.30;99.70;;;;;;5039237;28;20669;-68
2021/09/28 14:40:48;;;;;;;42.87;6.67;;;17.30;99.70;;;;;;5027764;28;20487;-68
2021/09/28 14:43:16;;;;;;;43.70;7.20;;;17.40;99.70;;;;;;5033099;28;20469;-68
2021/09/28 14:45:43;;;;;;;44.87;7.10;;;17.30;99.70;;;;;;5037409;28;20534;-68
2021/09/28 14:48:11;;;;;;;43.73;6.57;;;17.30;99.70;;;;;;5035182;28;20896;-69
2021/09/28 14:50:39;;;;;;;49.67;6.70;;;17.30;99.70;;;;;;5033703;28;20860;-68
2021/09/28 14:53:06;;;;;;;42.60;7.50;;;17.30;99.70;;;;;;5039646;28;20963;-68
2021/09/28 14:55:33;;;;;;;44.03;7.07;;;17.40;99.70;;;;;;5038838;28;20460;-68
2021/09/28 14:58:01;;;;;;;42.90;6.50;;;17.30;99.70;;;;;;5039697;28;20431;-68
2021/09/28 15:00:28;;;;;;;43.37;5.90;;;17.20;99.70;;;;;;5039845;28;20478;-68
2021/09/28 15:02:58;;;;;;;42.80;6.33;;;17.30;99.70;;;;;;5039335;28;20447;-68
2021/09/28 15:05:25;;;;;;;43.80;6.40;;;17.20;99.70;;;;;;5038600;28;21159;-68
2021/09/28 15:07:53;;;;;;;43.50;6.50;;;17.20;99.70;;;;;;5044978;28;20665;-69
2021/09/28 15:10:21;;;;;;;43.97;6.20;;;17.20;99.70;;;;;;5052089;28;20456;-68
2021/09/28 15:12:48;;;;;;;43.70;6.23;;;17.20;99.70;;;;;;5048907;28;20509;-68
2021/09/28 15:15:15;;;;;;;42.20;5.70;;;17.10;99.70;;;;;;5049886;28;20503;-68
2021/09/28 15:17:42;;;;;;;47.20;6.47;;;17.10;99.70;;;;;;5050269;28;20446;-69
2021/09/28 15:20:10;;;;;;;43.60;6.37;;;17.20;99.70;;;;;;5049805;28;20517;-69
2021/09/28 15:22:37;;;;;;;45.00;6.83;;;17.10;99.70;;;;;;5050781;28;20517;-67
2021/09/28 15:25:07;;;;;;;42.70;5.73;;;17.00;99.70;;;;;;5050592;28;20794;-68
2021/09/28 15:27:34;;;;;;;43.03;6.10;;;17.10;99.70;;;;;;5047112;28;20459;-68
2021/09/28 15:30:01;;;;;;;43.00;5.40;;;17.10;99.70;;;;;;5045675;28;20527;-67
2021/09/28 15:32:28;;;;;;;42.00;6.10;;;17.10;99.70;;;;;;5050089;28;20474;-68
2021/09/28 15:34:55;;;;;;;41.17;5.60;;;17.10;99.70;;;;;;5050095;28;20517;-70
2021/09/28 15:37:22;;;;;;;42.63;6.23;;;17.00;99.70;;;;;;5050137;28;20538;-69
2021/09/28 15:39:48;;;;;;;40.90;5.37;;;16.90;99.70;;;;;;5049415;28;20863;-69
2021/09/28 15:42:16;;;;;;;40.77;5.57;;;17.00;99.70;;;;;;5050442;28;20927;-70
2021/09/28 15:44:43;;;;;;;43.83;6.47;;;17.00;99.70;;;;;;5029779;28;20853;-69
2021/09/28 15:47:10;;;;;;;42.17;5.97;;;16.90;99.70;;;;;;5041453;28;20447;-69
2021/09/28 15:49:37;;;;;;;43.47;6.03;;;16.90;99.70;;;;;;5047374;28;20447;-69
2021/09/28 15:52:05;;;;;;;40.90;5.70;;;16.80;99.70;;;;;;5050170;28;20802;-69
2021/09/28 15:54:32;;;;;;;43.07;6.33;;;16.90;99.70;;;;;;5049616;28;20443;-69
2021/09/28 15:56:58;;;;;;;34.85;7.30;;;16.80;99.70;;;;;;5050026;28;20462;-69
2021/09/28 15:59:27;;;;;;;41.57;5.40;;;16.80;99.70;;;;;;5043543;28;20293;-69
2021/09/28 16:01:54;;;;;;;42.37;6.10;;;16.80;99.70;;;;;;5037471;28;20935;-69
2021/09/28 16:04:23;;;;;;;40.15;6.53;;;16.70;99.70;;;;;;5041293;28;20498;-69
2021/09/28 16:06:50;;;;;;;41.47;6.00;;;16.70;99.70;;;;;;5039627;28;20229;-69
2021/09/28 16:09:17;;;;;;;44.53;6.57;;;16.70;99.70;;;;;;5040097;28;20943;-69
2021/09/28 16:11:45;;;;;;;41.97;6.63;;;16.70;99.70;;;;;;5040127;28;20947;-69
2021/09/28 16:14:12;;;;;;;45.97;7.10;;;16.60;99.70;;;;;;5037613;28;20455;-70
2021/09/28 16:16:40;;;;;;;44.10;6.88;;;16.50;99.70;;;;;;5037504;28;20925;-70
2021/09/28 16:19:07;;;;;;;43.90;5.80;;;16.50;99.70;;;;;;5037659;28;20436;-70
2021/09/28 16:21:33;;;;;;;44.43;6.40;;;16.40;99.70;;;;;;5039118;28;20495;-70
2021/09/28 16:24:00;;;;;;;42.20;6.20;;;16.30;99.70;;;;;;5039251;28;20456;-70
2021/09/28 16:26:27;;;;;;;42.43;6.20;;;16.20;99.70;;;;;;5041595;28;20490;-69
2021/09/28 16:28:55;;;;;;;42.97;6.30;;;16.20;99.70;;;;;;5038588;28;20952;-69
2021/09/28 16:31:23;;;;;;;44.60;6.33;;;16.30;99.70;;;;;;5037558;28;20445;-70
2021/09/28 16:33:52;;;;;;;44.73;5.87;;;16.30;99.70;;;;;;5037494;28;20452;-70
2021/09/28 16:36:19;;;;;;;45.30;5.93;;;16.20;99.70;;;;;;5037373;28;20488;-70
2021/09/28 16:38:46;;;;;;;43.57;6.00;;;16.10;99.70;;;;;;5034722;28;20450;-70
2021/09/28 16:41:13;;;;;;;43.60;6.10;;;16.00;99.70;;;;;;5038963;28;20524;-70
2021/09/28 16:43:43;;;;;;;50.40;6.23;;;15.90;99.70;;;;;;5043312;28;20959;-70